Helena Regional Airport
KHLN : now visible

Airfield :











YOU CAN JOIN US ON...

 
LOGIN :

Register | Disclaimer

   EN    FR    IT 

 









Legend :    VFR   Marginal VFR   IFR   Intensive IFR   Very Intensive IFR
Visi :
Ceiling :
>= 8 km
>= 3000ft
5 to 8 km
1000 to 3000 ft
1500m to 5 km
500 to 1000 ft
800 to 1500m
200 to 500 ft
< 800m
< 200 ft
Symbols :   Thunderstorms  Fog  Heavy snow  Heavy precipitations  Wind > 20 kt






- Airport Elevation : 3877 ft
- IATA code : HLN


KHLN - Helena Regional

CURRENT METAR :
  • 262253Z 00000KT 10SM BKN065 OVC080 06/M03 A2991 RMK AO2 SLP166 T00561033

EXPIRED METARs :
  • 262153Z 00000KT 10SM FEW065 OVC085 05/M03 A2992 RMK AO2 SLP168 T00501033
  • 262053Z 29003KT 10SM SCT070 04/M03 A2992 RMK AO2 SLP169 T00441033 58021

TAF KHLN
Valid from the 26 at 18:00 until the 27 at 18:00 UTC


261732Z 2618/2718 VRB03KT P6SM SCT070 BKN150
FM262000 VRB04KT P6SM SCT025 OVC045
FM270600 27008KT P6SM SCT025 BKN060
FM271000 VRB04KT P6SM SCT035 BKN090



MET'MAP, your aeronautical weather chart ! - Copyright ORBIFLY December 2007 - Disclaimer

ORBIFLY MET'MAP TEAM :

Programming & Development : Alexandra Zaïnal
Concept & original design : Baudouin d'Aumeries
Assistance for programming : Marc-Olivier Méhu
Technical & hardware support : Manuel Goepfert

Contact : metmap@orbifly.com




SOURCES & CREDITS :

   NOAA       Earth
Advisory